Bloomington, Nebraska
Current Conditions -  °F | °C
As of 10:55 AM on Thursday 27 Nov 2014 (Local Time) from KHDE Reporting Station
Clear Clear  
Wind Chill: 17°   Ceiling: Unl
Heat Index: 30°   Visibility: 10mi
Dew Point: 18°   Wind: 22mph
Humidity: 61%   Direction: 160°SSE
Pressure: 30.31"   Gusts: 28mph
Location:  40.09°N, 99.04°W
Report Text: KHDE 271655Z AUTO 16019G24KT 10SM CLR M01/M08 A3031 RMK AO2 T10101076
Loading
Personal Weather Stations






























Interactive Weather Map New forecast layout! Learn more

10-Day Weather Forecast

Advertisements
Track Severe Weather on mobile